Time;durP1;ratioP1;P1;durP2;ratioP2;P2;SDS_P1;SDS_P2;PMS_P1;PMS_P2;Temp;Humidity;BMP_temperature;BMP_pressure;BME280_temperature;BME280_humidity;BME280_pressure;Samples;Min_cycle;Max_cycle;Signal;HPM_P1;HPM_P2
2023/12/09 00:05:17;;;;;;;115.97;47.83;;;-1.60;1.00;;;;;;9889208;30;20245;-80
2023/12/09 00:10:38;;;;;;;113.57;46.33;;;-1.60;1.00;;;;;;9865851;30;20210;-80
2023/12/09 00:16:00;;;;;;;120.00;47.77;;;-1.60;1.00;;;;;;9875604;30;20236;-80
2023/12/09 00:21:21;;;;;;;101.27;43.40;;;-1.60;1.00;;;;;;9863753;30;20217;-80
2023/12/09 00:26:42;;;;;;;116.47;43.97;;;-1.60;1.00;;;;;;9889728;30;20234;-80
2023/12/09 00:32:04;;;;;;;117.87;45.93;;;-1.60;1.00;;;;;;9890372;30;20201;-78
2023/12/09 00:37:28;;;;;;;106.90;43.67;;;-1.60;1.00;;;;;;9888500;30;20286;-78
2023/12/09 00:42:49;;;;;;;116.90;45.90;;;-1.60;1.00;;;;;;9858096;30;20564;-79
2023/12/09 00:48:11;;;;;;;102.43;43.20;;;-1.70;1.00;;;;;;9891870;29;20309;-79
2023/12/09 00:53:32;;;;;;;99.70;41.60;;;-1.70;99.90;;;;;;9863287;30;20210;-79
2023/12/09 00:58:53;;;;;;;92.80;38.77;;;-1.60;1.00;;;;;;9877306;30;20206;-78
2023/12/09 01:04:15;;;;;;;99.27;41.00;;;-1.60;38.60;;;;;;9888014;30;20264;-78
2023/12/09 01:09:36;;;;;;;100.77;41.87;;;-1.60;54.90;;;;;;9864615;30;20250;-80
2023/12/09 01:14:57;;;;;;;93.33;39.97;;;-1.70;1.00;;;;;;9875581;30;20211;-79
2023/12/09 01:20:19;;;;;;;102.47;39.63;;;-1.60;99.90;;;;;;9882217;30;20282;-79
2023/12/09 01:25:40;;;;;;;92.50;38.27;;;-1.70;99.90;;;;;;9882502;30;20495;-80
2023/12/09 01:31:01;;;;;;;93.13;40.47;;;-1.70;1.00;;;;;;9895827;30;20549;-79
2023/12/09 01:36:23;;;;;;;103.40;43.23;;;-1.70;1.00;;;;;;9893956;30;20541;-79
2023/12/09 01:41:44;;;;;;;93.63;38.90;;;-1.80;1.00;;;;;;9886705;30;20298;-80
2023/12/09 01:47:07;;;;;;;93.53;38.47;;;-1.70;1.00;;;;;;9846216;30;20227;-79
2023/12/09 01:52:30;;;;;;;89.27;38.80;;;-1.70;99.90;;;;;;9862298;30;20206;-80
2023/12/09 01:57:52;;;;;;;99.17;42.13;;;-1.70;99.90;;;;;;9882287;30;20231;-79
2023/12/09 02:03:14;;;;;;;92.07;39.30;;;-1.70;99.90;;;;;;9881242;30;20291;-80
2023/12/09 02:08:37;;;;;;;96.43;39.63;;;-1.70;99.90;;;;;;9894864;30;20227;-80
2023/12/09 02:14:10;;;;;;;85.73;37.00;;;-1.80;99.90;;;;;;9892918;30;20551;-79
2023/12/09 02:19:32;;;;;;;94.43;38.67;;;-1.90;99.90;;;;;;9881481;30;20209;-81
2023/12/09 02:24:53;;;;;;;92.00;38.73;;;-1.90;1.00;;;;;;9880093;30;20426;-81
2023/12/09 02:30:50;;;;;;;106.33;42.17;;;-1.90;1.00;;;;;;9868326;30;20234;-79
2023/12/09 02:36:15;;;;;;;105.03;40.07;;;-1.80;1.00;;;;;;9879841;30;20435;-79
2023/12/09 02:41:36;;;;;;;89.50;38.03;;;-1.90;1.00;;;;;;9883403;30;20317;-80
2023/12/09 02:46:57;;;;;;;85.30;33.97;;;-1.90;1.00;;;;;;9892896;30;20233;-79
2023/12/09 02:52:18;;;;;;;83.67;36.03;;;-1.80;1.00;;;;;;9903930;30;20492;-79
2023/12/09 02:57:40;;;;;;;98.57;39.53;;;-1.80;1.00;;;;;;9892910;30;20461;-78
2023/12/09 03:03:01;;;;;;;90.40;37.33;;;-1.80;1.00;;;;;;9891231;30;20210;-78
2023/12/09 03:08:22;;;;;;;91.07;40.13;;;-1.80;1.00;;;;;;9879895;30;20233;-80
2023/12/09 03:13:44;;;;;;;92.40;37.17;;;-1.90;1.00;;;;;;9878209;30;20265;-80
2023/12/09 03:19:05;;;;;;;86.80;36.30;;;-1.70;1.00;;;;;;9879510;30;20205;-79
2023/12/09 03:24:26;;;;;;;84.60;36.20;;;-1.70;1.00;;;;;;9865512;30;20212;-78
2023/12/09 03:29:48;;;;;;;99.10;36.97;;;-1.70;1.00;;;;;;9878862;30;20266;-80
2023/12/09 03:35:12;;;;;;;93.30;38.03;;;-1.80;1.00;;;;;;9890555;30;20238;-79
2023/12/09 03:40:33;;;;;;;90.33;37.47;;;-1.70;1.00;;;;;;9888389;30;20253;-79
2023/12/09 03:45:54;;;;;;;93.63;38.23;;;-1.60;1.00;;;;;;9884811;30;20276;-78
2023/12/09 03:51:15;;;;;;;86.77;35.93;;;-1.60;1.00;;;;;;9891272;30;20508;-80
2023/12/09 03:56:36;;;;;;;96.47;37.00;;;-1.60;1.00;;;;;;9889904;30;20229;-79
2023/12/09 04:01:58;;;;;;;87.67;36.63;;;-1.70;1.00;;;;;;9865463;30;20213;-80
2023/12/09 04:07:20;;;;;;;86.57;35.97;;;-1.60;1.00;;;;;;9890635;30;20287;-79
2023/12/09 04:12:41;;;;;;;92.13;36.10;;;-1.60;1.00;;;;;;9888786;30;20241;-79
2023/12/09 04:18:02;;;;;;;94.97;39.63;;;-1.60;1.00;;;;;;9890418;30;20211;-78
2023/12/09 04:23:24;;;;;;;90.63;37.67;;;-1.60;99.90;;;;;;9889069;30;20210;-79
2023/12/09 04:28:46;;;;;;;92.80;38.10;;;-1.60;1.00;;;;;;9881171;30;20234;-79
2023/12/09 04:34:07;;;;;;;92.60;37.70;;;-1.50;1.00;;;;;;9888635;30;20206;-80
2023/12/09 04:39:29;;;;;;;93.23;39.53;;;-1.50;1.00;;;;;;9877318;30;20260;-78
2023/12/09 04:44:50;;;;;;;103.73;39.40;;;-1.40;99.90;;;;;;9888262;30;20218;-79
2023/12/09 04:50:12;;;;;;;92.10;35.90;;;-1.40;2.00;;;;;;9877356;30;20325;-81
2023/12/09 04:55:33;;;;;;;90.33;37.20;;;-1.40;1.00;;;;;;9894602;30;20207;-79
2023/12/09 05:00:54;;;;;;;90.03;34.30;;;-1.50;1.00;;;;;;9897279;30;20247;-80
2023/12/09 05:06:16;;;;;;;86.67;34.57;;;-1.40;1.00;;;;;;9895450;30;20231;-80
2023/12/09 05:11:37;;;;;;;88.40;37.10;;;-1.40;1.00;;;;;;9883969;30;20206;-81
2023/12/09 05:16:59;;;;;;;96.20;36.50;;;-1.40;99.90;;;;;;9896509;30;20239;-79
2023/12/09 05:22:21;;;;;;;97.03;37.97;;;-1.40;1.00;;;;;;9897153;30;20532;-81
2023/12/09 05:27:42;;;;;;;94.03;41.37;;;-1.40;1.00;;;;;;9895857;30;20476;-81
2023/12/09 05:33:06;;;;;;;88.43;36.53;;;-1.40;1.00;;;;;;9881299;30;20243;-80
2023/12/09 05:38:27;;;;;;;85.23;35.13;;;-1.40;1.00;;;;;;9882813;30;20203;-80
2023/12/09 05:43:48;;;;;;;99.73;37.90;;;-1.40;24.20;;;;;;9870207;30;20262;-79
2023/12/09 05:49:10;;;;;;;89.47;35.57;;;-1.50;99.90;;;;;;9882587;30;20238;-80
2023/12/09 05:54:32;;;;;;;93.27;38.50;;;-1.50;99.90;;;;;;9880900;30;20508;-82
2023/12/09 05:59:53;;;;;;;104.30;40.53;;;-1.40;99.90;;;;;;9882449;30;20207;-80
2023/12/09 06:05:14;;;;;;;103.97;42.73;;;-1.40;99.90;;;;;;9892807;30;20209;-81
2023/12/09 06:10:35;;;;;;;92.83;35.53;;;-1.30;99.90;;;;;;9881241;30;20224;-80
2023/12/09 06:15:56;;;;;;;109.10;42.37;;;-1.30;1.00;;;;;;9893830;30;20275;-79
2023/12/09 06:21:25;;;;;;;108.97;39.67;;;-1.30;99.90;;;;;;9893008;30;20199;-80
2023/12/09 06:26:47;;;;;;;101.77;37.83;;;-1.30;1.00;;;;;;9894269;30;20260;-80
2023/12/09 06:32:08;;;;;;;102.97;38.63;;;-1.30;14.30;;;;;;9889248;30;20398;-80
2023/12/09 06:37:29;;;;;;;98.13;37.63;;;-1.30;99.90;;;;;;9893571;30;20208;-81
2023/12/09 06:42:51;;;;;;;99.97;37.97;;;-1.30;99.90;;;;;;9892502;30;20247;-80
2023/12/09 06:48:12;;;;;;;94.77;36.67;;;-1.20;1.00;;;;;;9886620;30;20230;-81
2023/12/09 06:53:38;;;;;;;106.43;39.40;;;-1.20;1.00;;;;;;9886338;30;20216;-79
2023/12/09 06:59:00;;;;;;;103.13;38.73;;;-1.20;99.90;;;;;;9900406;30;20495;-80
2023/12/09 07:04:21;;;;;;;106.77;39.47;;;-1.10;1.00;;;;;;9875650;30;20220;-79
2023/12/09 07:09:42;;;;;;;114.53;40.57;;;-1.30;1.00;;;;;;9892081;30;20542;-78
2023/12/09 07:15:05;;;;;;;119.83;39.67;;;-1.30;1.00;;;;;;9878428;30;20222;-79
2023/12/09 07:20:26;;;;;;;108.27;39.03;;;-1.20;1.00;;;;;;9856369;30;20272;-79
2023/12/09 07:25:47;;;;;;;103.97;37.37;;;-1.20;40.20;;;;;;9889362;30;20211;-79
2023/12/09 07:31:09;;;;;;;108.23;38.67;;;-1.20;99.90;;;;;;9878871;30;20230;-79
2023/12/09 07:36:30;;;;;;;105.00;38.77;;;-1.20;99.90;;;;;;9891583;30;20199;-79
2023/12/09 07:41:51;;;;;;;124.00;42.63;;;-1.20;99.90;;;;;;9889740;30;20250;-79
2023/12/09 07:47:13;;;;;;;112.80;40.23;;;-1.10;99.90;;;;;;9878481;30;20474;-79
2023/12/09 07:52:35;;;;;;;105.83;37.93;;;-1.20;1.00;;;;;;9887487;30;20219;-79
2023/12/09 07:57:56;;;;;;;103.03;36.53;;;-1.20;99.90;;;;;;9892132;30;20206;-78
2023/12/09 08:03:17;;;;;;;115.17;42.27;;;-1.10;99.90;;;;;;9888986;30;20255;-79
2023/12/09 08:08:39;;;;;;;121.23;42.87;;;-1.10;1.00;;;;;;9890758;30;20394;-78
2023/12/09 08:14:00;;;;;;;103.77;39.20;;;-1.00;99.90;;;;;;9890660;30;20515;-81
2023/12/09 08:19:21;;;;;;;103.63;40.63;;;-1.10;99.90;;;;;;9877935;30;20222;-80
2023/12/09 08:24:42;;;;;;;102.20;37.87;;;-1.20;99.90;;;;;;9889225;30;20271;-80
2023/12/09 08:30:05;;;;;;;118.40;41.40;;;-1.20;1.00;;;;;;9883656;30;20280;-81
2023/12/09 08:35:26;;;;;;;115.83;41.50;;;-1.20;1.00;;;;;;9884213;30;20435;-80
2023/12/09 08:40:47;;;;;;;125.33;43.33;;;-1.10;1.00;;;;;;9881156;30;20298;-80
2023/12/09 08:46:09;;;;;;;133.97;45.63;;;-1.00;1.00;;;;;;9882958;30;20214;-80
2023/12/09 08:51:30;;;;;;;126.60;46.97;;;-1.20;1.00;;;;;;9907612;30;20215;-80
2023/12/09 08:56:51;;;;;;;136.03;47.67;;;-1.20;1.00;;;;;;9847547;30;20203;-79
2023/12/09 09:02:13;;;;;;;116.67;43.13;;;-1.10;1.00;;;;;;9855519;30;20224;-79
2023/12/09 09:07:38;;;;;;;120.20;44.40;;;-1.00;1.00;;;;;;9883979;30;20299;-78
2023/12/09 09:12:59;;;;;;;122.57;43.73;;;-1.10;1.00;;;;;;9894919;30;20268;-80
2023/12/09 09:18:21;;;;;;;116.73;43.33;;;-0.90;1.00;;;;;;9897140;30;20209;-79
2023/12/09 09:23:42;;;;;;;112.80;41.23;;;-0.90;1.00;;;;;;9882186;30;20216;-79
2023/12/09 09:29:03;;;;;;;123.23;42.80;;;-0.90;1.00;;;;;;9870692;30;20234;-78
2023/12/09 09:34:24;;;;;;;120.97;41.23;;;-0.90;1.00;;;;;;9893924;30;20398;-78
2023/12/09 09:39:47;;;;;;;115.43;41.57;;;-0.80;1.00;;;;;;9893110;30;20258;-78
2023/12/09 09:45:20;;;;;;;111.93;41.73;;;-0.80;1.00;;;;;;9881132;30;20258;-80
2023/12/09 09:50:45;;;;;;;141.97;51.97;;;-0.80;1.00;;;;;;9882436;30;20305;-79
2023/12/09 09:56:08;;;;;;;120.77;45.73;;;-0.80;1.00;;;;;;9914808;30;20206;-79
2023/12/09 10:01:31;;;;;;;112.97;46.57;;;-0.70;1.00;;;;;;9901926;30;20307;-78
2023/12/09 10:06:56;;;;;;;110.50;42.93;;;-0.70;1.00;;;;;;9857930;30;20235;-79
2023/12/09 10:12:18;;;;;;;119.13;44.87;;;-0.70;1.00;;;;;;9882674;30;20219;-79
2023/12/09 10:17:39;;;;;;;112.00;41.27;;;-0.70;99.90;;;;;;9893925;30;20253;-79
2023/12/09 10:23:01;;;;;;;119.03;47.80;;;-0.60;99.90;;;;;;9892844;30;20204;-79
2023/12/09 10:28:22;;;;;;;121.77;43.67;;;-0.50;99.90;;;;;;9900596;30;20258;-80
2023/12/09 10:33:44;;;;;;;102.73;38.57;;;-0.50;1.00;;;;;;9911487;29;20243;-81
2023/12/09 10:39:05;;;;;;;107.33;38.93;;;-0.50;1.00;;;;;;9893475;30;20234;-80
2023/12/09 10:44:27;;;;;;;108.57;41.10;;;-0.50;1.00;;;;;;9891765;30;20204;-81
2023/12/09 10:49:48;;;;;;;108.27;39.63;;;-0.40;91.10;;;;;;9892566;30;20242;-79
2023/12/09 10:55:10;;;;;;;111.70;42.10;;;-0.40;1.00;;;;;;9892594;30;20208;-80
2023/12/09 11:00:32;;;;;;;112.03;41.53;;;-0.40;1.00;;;;;;9872656;30;20256;-80
2023/12/09 11:05:58;;;;;;;120.93;45.33;;;-0.20;1.00;;;;;;9880871;30;20217;-79
2023/12/09 11:11:19;;;;;;;128.00;45.87;;;-0.10;1.00;;;;;;9867208;30;20212;-79
2023/12/09 11:16:46;;;;;;;118.67;45.40;;;-0.10;1.00;;;;;;9890256;30;20220;-80
2023/12/09 11:22:13;;;;;;;98.83;39.40;;;-0.10;1.00;;;;;;9878228;30;20212;-81
2023/12/09 11:27:36;;;;;;;114.57;45.67;;;-0.10;1.00;;;;;;9891976;30;20234;-78
2023/12/09 11:32:58;;;;;;;109.70;42.13;;;-0.20;1.00;;;;;;9891195;30;20218;-78
2023/12/09 11:38:20;;;;;;;101.57;38.70;;;-0.20;99.90;;;;;;9879129;30;20223;-80
2023/12/09 11:43:41;;;;;;;98.87;41.50;;;-0.20;1.00;;;;;;9883927;30;20243;-80
2023/12/09 11:49:03;;;;;;;99.73;42.90;;;-0.20;1.00;;;;;;9878572;30;20309;-79
2023/12/09 11:54:25;;;;;;;102.53;38.53;;;-0.20;1.00;;;;;;9877491;30;20212;-79
2023/12/09 11:59:46;;;;;;;112.10;42.83;;;-0.10;1.00;;;;;;9878156;30;20451;-78
2023/12/09 12:05:08;;;;;;;106.93;43.23;;;-0.10;58.20;;;;;;9875980;30;20269;-78
2023/12/09 12:10:30;;;;;;;107.53;40.90;;;-0.10;99.90;;;;;;9890591;30;20326;-78
2023/12/09 12:15:53;;;;;;;105.70;41.07;;;-0.10;99.90;;;;;;9889298;30;20269;-79
2023/12/09 12:21:14;;;;;;;105.33;43.60;;;-0.10;1.00;;;;;;9876900;30;20211;-80
2023/12/09 12:26:36;;;;;;;122.23;49.07;;;-0.20;1.00;;;;;;9890230;30;20279;-81
2023/12/09 12:31:58;;;;;;;153.03;62.23;;;-0.20;1.00;;;;;;9876209;30;20302;-79
2023/12/09 12:37:20;;;;;;;112.63;49.77;;;-0.20;1.00;;;;;;9890331;30;20205;-78
2023/12/09 12:42:42;;;;;;;116.90;48.80;;;-0.20;1.00;;;;;;9876962;30;20279;-81
2023/12/09 12:48:04;;;;;;;110.57;43.93;;;-0.10;1.00;;;;;;9852736;30;20233;-78
2023/12/09 12:53:27;;;;;;;95.87;39.53;;;0.00;99.90;;;;;;9886740;30;20211;-79
2023/12/09 12:58:48;;;;;;;99.27;40.67;;;-0.10;99.90;;;;;;9875397;30;20208;-79
2023/12/09 13:04:10;;;;;;;99.93;39.73;;;-0.10;99.90;;;;;;9918896;29;20490;-80
2023/12/09 13:09:31;;;;;;;97.63;40.50;;;0.00;99.90;;;;;;9910959;29;20305;-80
2023/12/09 13:14:53;;;;;;;87.70;36.80;;;0.00;99.90;;;;;;9845821;30;20212;-80
2023/12/09 13:20:14;;;;;;;95.27;39.20;;;0.00;99.90;;;;;;9887745;30;20259;-79
2023/12/09 13:25:35;;;;;;;89.77;35.87;;;-0.10;1.00;;;;;;9873588;30;20213;-79
2023/12/09 13:30:57;;;;;;;99.67;38.67;;;0.00;1.00;;;;;;9894338;30;20597;-79
2023/12/09 13:36:18;;;;;;;91.50;39.20;;;0.00;1.00;;;;;;9896667;30;20275;-79
2023/12/09 13:41:40;;;;;;;86.40;35.73;;;0.00;30.80;;;;;;9893460;30;20271;-79
2023/12/09 13:47:02;;;;;;;87.97;36.33;;;0.00;1.00;;;;;;9858296;30;20231;-79
2023/12/09 13:52:29;;;;;;;82.60;36.67;;;0.00;1.00;;;;;;9864581;30;20222;-78
2023/12/09 13:57:51;;;;;;;85.30;36.80;;;-0.20;99.90;;;;;;9845545;30;20219;-79
2023/12/09 14:03:12;;;;;;;84.63;36.23;;;-0.30;99.90;;;;;;9929690;29;20215;-80
2023/12/09 14:08:34;;;;;;;92.97;39.67;;;-0.20;99.90;;;;;;9917012;30;20236;-80
2023/12/09 14:13:55;;;;;;;90.10;39.13;;;-0.20;99.90;;;;;;9872034;30;20381;-80
2023/12/09 14:19:17;;;;;;;86.40;37.20;;;-0.20;99.90;;;;;;9882877;30;20226;-80
2023/12/09 14:24:38;;;;;;;81.80;36.30;;;-0.20;99.90;;;;;;9906198;30;20483;-79
2023/12/09 14:29:59;;;;;;;88.00;39.03;;;-0.20;99.90;;;;;;9867829;30;20325;-79
2023/12/09 14:35:22;;;;;;;100.57;43.13;;;-0.10;99.90;;;;;;9893777;30;20208;-79
2023/12/09 14:40:43;;;;;;;94.13;38.13;;;-0.20;99.90;;;;;;9891603;30;20251;-79
2023/12/09 14:46:05;;;;;;;86.57;36.40;;;-0.20;99.90;;;;;;9894306;30;20256;-79
2023/12/09 14:51:26;;;;;;;80.70;36.63;;;-0.30;1.00;;;;;;9876760;30;20315;-80
2023/12/09 14:56:53;;;;;;;73.70;34.03;;;-0.30;1.00;;;;;;9893406;30;20207;-78
2023/12/09 15:02:14;;;;;;;74.17;35.90;;;-0.30;1.00;;;;;;9896215;30;20215;-80
2023/12/09 15:07:36;;;;;;;85.43;36.90;;;-0.20;1.00;;;;;;9916934;30;20238;-80
2023/12/09 15:12:57;;;;;;;79.20;35.97;;;-0.20;1.00;;;;;;9861279;30;20220;-81
2023/12/09 15:18:18;;;;;;;67.33;31.77;;;-0.10;1.00;;;;;;9855538;30;20251;-80
2023/12/09 15:23:39;;;;;;;67.23;32.73;;;-0.10;99.90;;;;;;9851178;30;20227;-80
2023/12/09 15:29:01;;;;;;;74.23;34.40;;;-0.10;99.90;;;;;;9872089;30;20531;-79
2023/12/09 15:34:22;;;;;;;67.87;34.97;;;-0.10;99.90;;;;;;9882350;30;20211;-80
2023/12/09 15:39:44;;;;;;;73.53;33.63;;;-0.10;1.00;;;;;;9890031;30;20455;-81
2023/12/09 15:45:05;;;;;;;76.17;34.10;;;-0.10;99.90;;;;;;9865975;30;20222;-81
2023/12/09 15:50:27;;;;;;;68.97;32.63;;;0.00;99.90;;;;;;9891268;30;20299;-81
2023/12/09 15:55:48;;;;;;;72.60;32.50;;;-0.10;99.90;;;;;;9889931;30;20251;-82
2023/12/09 16:01:10;;;;;;;71.17;33.40;;;-0.10;1.00;;;;;;9888392;30;20206;-81
2023/12/09 16:06:31;;;;;;;68.73;33.13;;;-0.20;1.00;;;;;;9884160;30;20256;-81
2023/12/09 16:11:52;;;;;;;70.17;32.03;;;-0.20;1.00;;;;;;9890502;30;20259;-81
2023/12/09 16:17:16;;;;;;;70.30;33.00;;;-0.10;1.00;;;;;;9865308;30;20300;-80
2023/12/09 16:22:38;;;;;;;63.90;31.20;;;-0.10;99.90;;;;;;9868521;30;20215;-80
2023/12/09 16:27:59;;;;;;;68.97;34.47;;;-0.10;1.00;;;;;;9841208;30;20313;-81
2023/12/09 16:33:20;;;;;;;71.97;34.60;;;-0.10;1.00;;;;;;9862344;30;20269;-81
2023/12/09 16:38:41;;;;;;;66.30;33.50;;;-0.10;1.00;;;;;;9891607;30;20431;-80
2023/12/09 16:44:03;;;;;;;73.40;34.83;;;0.00;99.90;;;;;;9890101;30;20258;-82
2023/12/09 16:49:24;;;;;;;83.70;36.43;;;0.00;99.90;;;;;;9892199;30;20293;-80
2023/12/09 16:54:45;;;;;;;88.73;39.70;;;0.00;99.90;;;;;;9897520;30;20201;-80
2023/12/09 17:00:07;;;;;;;72.03;37.77;;;0.00;99.90;;;;;;9884389;30;20283;-80
2023/12/09 17:05:28;;;;;;;65.33;30.83;;;0.00;99.90;;;;;;9882835;30;20400;-80
2023/12/09 17:10:49;;;;;;;66.60;35.47;;;0.00;1.00;;;;;;9884196;30;20239;-81
2023/12/09 17:16:12;;;;;;;56.27;30.30;;;0.00;99.90;;;;;;9896594;30;20295;-79
2023/12/09 17:21:33;;;;;;;64.13;33.33;;;0.00;99.90;;;;;;9883197;30;20384;-79
2023/12/09 17:26:54;;;;;;;64.10;33.33;;;0.10;1.00;;;;;;9883325;30;20357;-79
2023/12/09 17:32:16;;;;;;;67.37;35.27;;;0.10;99.90;;;;;;9895852;30;20236;-80
2023/12/09 17:37:37;;;;;;;71.83;36.57;;;0.10;99.90;;;;;;9895935;30;20270;-81
2023/12/09 17:42:58;;;;;;;66.10;32.20;;;0.10;99.90;;;;;;9893407;30;20241;-80
2023/12/09 17:48:21;;;;;;;60.37;30.53;;;0.20;99.90;;;;;;9895562;30;20467;-79
2023/12/09 17:53:43;;;;;;;66.90;35.87;;;0.10;99.90;;;;;;9883536;30;20204;-80
2023/12/09 17:59:05;;;;;;;59.57;31.93;;;0.10;1.00;;;;;;9882227;30;20208;-80
2023/12/09 18:04:26;;;;;;;72.43;35.60;;;0.10;1.00;;;;;;9893693;30;20222;-79
2023/12/09 18:09:48;;;;;;;90.73;41.90;;;0.10;1.00;;;;;;9922424;29;20239;-79
2023/12/09 18:15:10;;;;;;;94.23;42.73;;;0.10;1.00;;;;;;9882373;30;20276;-79
2023/12/09 18:20:31;;;;;;;102.87;43.83;;;0.10;1.00;;;;;;9907306;30;20227;-80
2023/12/09 18:25:53;;;;;;;105.53;45.80;;;0.20;1.00;;;;;;9890822;30;20208;-79
2023/12/09 18:31:14;;;;;;;102.07;42.43;;;0.10;1.00;;;;;;9880981;30;20241;-79
2023/12/09 18:36:36;;;;;;;83.10;41.17;;;0.10;1.00;;;;;;9911905;30;20508;-79
2023/12/09 18:41:57;;;;;;;88.23;41.47;;;0.10;1.00;;;;;;9917503;30;20294;-78
2023/12/09 18:47:19;;;;;;;86.97;39.93;;;0.10;1.00;;;;;;9882063;30;20225;-78
2023/12/09 18:52:40;;;;;;;81.73;38.83;;;0.10;1.00;;;;;;9894483;30;20209;-80
2023/12/09 18:58:01;;;;;;;90.17;42.10;;;0.10;1.00;;;;;;9880078;30;20266;-78
2023/12/09 19:03:25;;;;;;;83.27;39.80;;;0.10;1.00;;;;;;9880428;30;20200;-79
2023/12/09 19:08:47;;;;;;;87.37;40.90;;;0.10;1.00;;;;;;9871223;30;20419;-79
2023/12/09 19:14:08;;;;;;;101.30;43.30;;;0.10;1.00;;;;;;9891376;30;20459;-78
2023/12/09 19:19:30;;;;;;;104.63;48.70;;;0.20;1.00;;;;;;9880234;30;20488;-79
2023/12/09 19:24:50;;;;;;;92.03;41.03;;;0.20;1.00;;;;;;9904606;30;20462;-78
2023/12/09 19:30:13;;;;;;;85.50;39.53;;;0.20;1.00;;;;;;9890788;30;20229;-79
2023/12/09 19:35:35;;;;;;;88.37;39.50;;;0.20;1.00;;;;;;9891848;30;20390;-80
2023/12/09 19:40:56;;;;;;;95.23;40.00;;;0.20;1.00;;;;;;9891345;30;20281;-79
2023/12/09 19:46:18;;;;;;;91.33;38.53;;;0.20;1.00;;;;;;9867388;30;20213;-79
2023/12/09 19:51:39;;;;;;;98.40;42.37;;;0.30;1.00;;;;;;9842264;30;20260;-79
2023/12/09 19:57:00;;;;;;;82.27;36.73;;;0.30;1.00;;;;;;9857303;30;20386;-78
2023/12/09 20:02:22;;;;;;;82.60;36.87;;;0.30;1.00;;;;;;9855480;30;20194;-79
2023/12/09 20:07:43;;;;;;;85.73;37.60;;;0.30;1.00;;;;;;9841748;30;20217;-79
2023/12/09 20:13:04;;;;;;;86.80;36.67;;;0.30;1.00;;;;;;9913342;30;20203;-79
2023/12/09 20:18:25;;;;;;;81.27;36.63;;;0.20;1.00;;;;;;9928708;29;20208;-79
2023/12/09 20:23:47;;;;;;;83.53;38.40;;;0.20;1.00;;;;;;9889218;30;20212;-79
2023/12/09 20:29:08;;;;;;;85.97;36.60;;;0.30;21.70;;;;;;9868478;30;20431;-79
2023/12/09 20:34:31;;;;;;;96.27;38.87;;;0.30;10.70;;;;;;9854688;30;20228;-79
2023/12/09 20:39:56;;;;;;;99.47;41.77;;;0.30;1.00;;;;;;9853455;30;20242;-79
2023/12/09 20:45:18;;;;;;;92.23;38.87;;;0.30;1.00;;;;;;9874249;30;20248;-79
2023/12/09 20:50:39;;;;;;;129.53;50.33;;;0.40;5.20;;;;;;9866042;30;20534;-78
2023/12/09 20:56:01;;;;;;;127.00;48.67;;;0.40;1.00;;;;;;9874127;30;20221;-78
2023/12/09 21:01:22;;;;;;;103.10;46.00;;;0.40;1.20;;;;;;9877313;30;20213;-79
2023/12/09 21:06:44;;;;;;;107.20;49.17;;;0.30;97.30;;;;;;9890087;30;20205;-79
2023/12/09 21:12:06;;;;;;;103.30;46.27;;;0.40;65.20;;;;;;9905287;30;20236;-81
2023/12/09 21:17:27;;;;;;;100.03;44.03;;;0.40;75.10;;;;;;9928134;29;20279;-81
2023/12/09 21:22:50;;;;;;;111.93;49.43;;;0.50;49.50;;;;;;9901532;30;20557;-81
2023/12/09 21:28:11;;;;;;;91.47;41.37;;;0.50;53.70;;;;;;9876873;30;20263;-81
2023/12/09 21:33:32;;;;;;;89.03;39.33;;;0.50;51.40;;;;;;9877213;30;20499;-80
2023/12/09 21:38:53;;;;;;;96.57;38.13;;;0.50;40.30;;;;;;9895606;30;20218;-81
2023/12/09 21:44:15;;;;;;;78.50;38.43;;;0.50;38.80;;;;;;9869779;30;20248;-81
2023/12/09 21:49:40;;;;;;;96.00;39.37;;;0.50;62.90;;;;;;9846236;30;20243;-80
2023/12/09 21:55:01;;;;;;;89.97;41.67;;;0.50;99.90;;;;;;9884534;30;20230;-80
2023/12/09 22:00:23;;;;;;;92.50;40.50;;;0.50;99.90;;;;;;9882745;30;20216;-81
2023/12/09 22:05:44;;;;;;;88.23;39.07;;;0.50;99.90;;;;;;9882349;30;20213;-82
2023/12/09 22:11:07;;;;;;;88.20;39.23;;;0.50;82.10;;;;;;9915497;30;20224;-82
2023/12/09 22:16:29;;;;;;;86.70;38.30;;;0.60;99.90;;;;;;9931912;29;20372;-80
2023/12/09 22:21:50;;;;;;;84.03;39.70;;;0.50;99.90;;;;;;9927349;30;20228;-81
2023/12/09 22:27:11;;;;;;;86.17;40.27;;;0.60;99.90;;;;;;9894248;30;20220;-80
2023/12/09 22:32:33;;;;;;;77.77;36.77;;;0.60;99.90;;;;;;9894224;30;20248;-81
2023/12/09 22:37:54;;;;;;;82.30;36.77;;;0.60;99.90;;;;;;9894927;30;20254;-82
2023/12/09 22:43:15;;;;;;;80.70;35.40;;;0.60;99.90;;;;;;9880074;30;20543;-82
2023/12/09 22:48:36;;;;;;;77.57;34.10;;;0.60;99.90;;;;;;9893175;30;20264;-81
2023/12/09 22:53:57;;;;;;;74.70;34.13;;;0.60;99.90;;;;;;9892435;30;20206;-81
2023/12/09 22:59:18;;;;;;;72.43;32.77;;;0.70;99.90;;;;;;9880482;30;20216;-80
2023/12/09 23:04:40;;;;;;;82.80;35.63;;;0.70;99.90;;;;;;9894081;30;20198;-81
2023/12/09 23:10:01;;;;;;;75.33;33.73;;;0.80;99.90;;;;;;9905732;30;20411;-80
2023/12/09 23:15:24;;;;;;;78.83;35.23;;;0.80;99.90;;;;;;9916939;30;20391;-81
2023/12/09 23:20:46;;;;;;;69.40;33.07;;;0.80;99.90;;;;;;9906602;29;20247;-81
2023/12/09 23:26:09;;;;;;;71.77;34.37;;;0.70;99.90;;;;;;9879753;30;20288;-81
2023/12/09 23:31:30;;;;;;;71.53;33.37;;;0.80;99.90;;;;;;9891923;30;20243;-80
2023/12/09 23:36:55;;;;;;;63.93;31.93;;;0.80;99.90;;;;;;9892648;30;20488;-80
2023/12/09 23:42:16;;;;;;;75.13;33.80;;;0.80;99.90;;;;;;9893206;30;20245;-79
2023/12/09 23:47:38;;;;;;;73.00;34.13;;;0.80;99.90;;;;;;9860679;30;20517;-80
2023/12/09 23:52:59;;;;;;;67.70;31.47;;;0.90;99.90;;;;;;9867380;30;20448;-80
2023/12/09 23:58:20;;;;;;;69.17;31.97;;;0.90;99.90;;;;;;9866414;30;20204;-82
